sensor_id;sensor_type;location;lat;lon;timestamp;P1;durP1;ratioP1;P2;durP2;ratioP2
72065;SDS011;59939;52.516;13.420;2023-02-01T00:01:49;19.87;;;4.30;;
72065;SDS011;59939;52.516;13.420;2023-02-01T00:04:53;20.30;;;4.13;;
72065;SDS011;59939;52.516;13.420;2023-02-01T00:07:57;19.50;;;10.53;;
72065;SDS011;59939;52.516;13.420;2023-02-01T00:11:04;19.30;;;8.03;;
72065;SDS011;59939;52.516;13.420;2023-02-01T00:14:08;16.00;;;5.87;;
72065;SDS011;59939;52.516;13.420;2023-02-01T00:17:13;15.00;;;4.80;;
72065;SDS011;59939;52.516;13.420;2023-02-01T00:20:19;17.63;;;4.30;;
72065;SDS011;59939;52.516;13.420;2023-02-01T00:23:24;11.87;;;3.67;;
72065;SDS011;59939;52.516;13.420;2023-02-01T00:29:38;15.40;;;3.13;;
72065;SDS011;59939;52.516;13.420;2023-02-01T00:32:42;16.13;;;4.33;;
72065;SDS011;59939;52.516;13.420;2023-02-01T00:35:46;13.57;;;4.40;;
72065;SDS011;59939;52.516;13.420;2023-02-01T00:42:20;20.17;;;3.47;;
72065;SDS011;59939;52.516;13.420;2023-02-01T00:45:23;16.77;;;4.53;;
72065;SDS011;59939;52.516;13.420;2023-02-01T00:48:35;25.03;;;4.63;;
72065;SDS011;59939;52.516;13.420;2023-02-01T00:51:41;17.67;;;3.47;;
72065;SDS011;59939;52.516;13.420;2023-02-01T00:54:45;12.13;;;3.30;;
72065;SDS011;59939;52.516;13.420;2023-02-01T00:57:49;12.93;;;3.40;;
72065;SDS011;59939;52.516;13.420;2023-02-01T01:04:17;13.93;;;2.73;;
72065;SDS011;59939;52.516;13.420;2023-02-01T01:07:22;11.17;;;3.87;;
72065;SDS011;59939;52.516;13.420;2023-02-01T01:10:26;15.40;;;3.50;;
72065;SDS011;59939;52.516;13.420;2023-02-01T01:13:30;14.77;;;3.67;;
72065;SDS011;59939;52.516;13.420;2023-02-01T01:20:03;12.47;;;3.33;;
72065;SDS011;59939;52.516;13.420;2023-02-01T01:23:08;13.63;;;3.37;;
72065;SDS011;59939;52.516;13.420;2023-02-01T01:26:18;13.40;;;3.27;;
72065;SDS011;59939;52.516;13.420;2023-02-01T01:29:27;15.60;;;3.87;;
72065;SDS011;59939;52.516;13.420;2023-02-01T01:32:31;15.00;;;3.73;;
72065;SDS011;59939;52.516;13.420;2023-02-01T01:35:36;15.30;;;3.27;;
72065;SDS011;59939;52.516;13.420;2023-02-01T01:38:43;21.83;;;3.90;;
72065;SDS011;59939;52.516;13.420;2023-02-01T01:41:49;15.20;;;3.47;;
72065;SDS011;59939;52.516;13.420;2023-02-01T01:45:32;17.17;;;3.07;;
72065;SDS011;59939;52.516;13.420;2023-02-01T01:48:28;9.57;;;2.97;;
72065;SDS011;59939;52.516;13.420;2023-02-01T01:51:38;16.77;;;3.70;;
72065;SDS011;59939;52.516;13.420;2023-02-01T01:54:45;10.57;;;2.73;;
72065;SDS011;59939;52.516;13.420;2023-02-01T01:57:58;9.30;;;2.47;;
72065;SDS011;59939;52.516;13.420;2023-02-01T02:01:03;14.17;;;3.20;;
72065;SDS011;59939;52.516;13.420;2023-02-01T02:04:12;15.23;;;4.23;;
72065;SDS011;59939;52.516;13.420;2023-02-01T02:07:18;17.93;;;3.43;;
72065;SDS011;59939;52.516;13.420;2023-02-01T02:10:23;15.47;;;4.27;;
72065;SDS011;59939;52.516;13.420;2023-02-01T02:13:56;15.20;;;3.27;;
72065;SDS011;59939;52.516;13.420;2023-02-01T02:17:15;9.90;;;2.70;;
72065;SDS011;59939;52.516;13.420;2023-02-01T02:23:38;15.27;;;3.30;;
72065;SDS011;59939;52.516;13.420;2023-02-01T02:33:38;10.57;;;2.63;;
72065;SDS011;59939;52.516;13.420;2023-02-01T02:43:44;16.23;;;3.30;;
72065;SDS011;59939;52.516;13.420;2023-02-01T02:47:11;15.13;;;3.07;;
72065;SDS011;59939;52.516;13.420;2023-02-01T02:54:19;13.13;;;3.20;;
72065;SDS011;59939;52.516;13.420;2023-02-01T02:57:44;15.37;;;3.93;;
72065;SDS011;59939;52.516;13.420;2023-02-01T03:01:08;13.40;;;2.63;;
72065;SDS011;59939;52.516;13.420;2023-02-01T03:04:31;11.67;;;3.23;;
72065;SDS011;59939;52.516;13.420;2023-02-01T03:07:53;13.83;;;3.00;;
72065;SDS011;59939;52.516;13.420;2023-02-01T03:11:07;19.80;;;5.60;;
72065;SDS011;59939;52.516;13.420;2023-02-01T03:14:12;18.03;;;3.90;;
72065;SDS011;59939;52.516;13.420;2023-02-01T03:17:18;15.90;;;3.87;;
72065;SDS011;59939;52.516;13.420;2023-02-01T03:20:26;15.90;;;4.47;;
72065;SDS011;59939;52.516;13.420;2023-02-01T03:23:38;16.17;;;3.07;;
72065;SDS011;59939;52.516;13.420;2023-02-01T03:26:44;14.07;;;3.27;;
72065;SDS011;59939;52.516;13.420;2023-02-01T03:33:14;10.97;;;2.97;;
72065;SDS011;59939;52.516;13.420;2023-02-01T03:39:56;13.07;;;3.63;;
72065;SDS011;59939;52.516;13.420;2023-02-01T03:43:12;17.47;;;3.80;;
72065;SDS011;59939;52.516;13.420;2023-02-01T03:46:22;24.07;;;4.07;;
72065;SDS011;59939;52.516;13.420;2023-02-01T03:49:34;17.67;;;2.90;;
72065;SDS011;59939;52.516;13.420;2023-02-01T03:52:49;10.57;;;2.43;;
72065;SDS011;59939;52.516;13.420;2023-02-01T03:55:55;7.27;;;2.40;;
72065;SDS011;59939;52.516;13.420;2023-02-01T03:59:09;11.93;;;3.60;;
72065;SDS011;59939;52.516;13.420;2023-02-01T04:02:14;21.10;;;3.97;;
72065;SDS011;59939;52.516;13.420;2023-02-01T04:05:19;17.13;;;4.53;;
72065;SDS011;59939;52.516;13.420;2023-02-01T04:08:32;12.87;;;3.30;;
72065;SDS011;59939;52.516;13.420;2023-02-01T04:11:35;15.80;;;2.97;;
72065;SDS011;59939;52.516;13.420;2023-02-01T04:14:39;11.47;;;3.13;;
72065;SDS011;59939;52.516;13.420;2023-02-01T04:17:43;18.67;;;4.70;;
72065;SDS011;59939;52.516;13.420;2023-02-01T04:20:55;17.07;;;3.40;;
72065;SDS011;59939;52.516;13.420;2023-02-01T04:24:13;15.97;;;3.97;;
72065;SDS011;59939;52.516;13.420;2023-02-01T04:27:19;10.90;;;3.63;;
72065;SDS011;59939;52.516;13.420;2023-02-01T04:30:23;14.67;;;3.80;;
72065;SDS011;59939;52.516;13.420;2023-02-01T04:33:27;25.97;;;4.03;;
72065;SDS011;59939;52.516;13.420;2023-02-01T04:36:31;17.07;;;4.37;;
72065;SDS011;59939;52.516;13.420;2023-02-01T04:39:35;18.20;;;4.50;;
72065;SDS011;59939;52.516;13.420;2023-02-01T04:42:45;20.43;;;3.53;;
72065;SDS011;59939;52.516;13.420;2023-02-01T04:45:49;19.47;;;3.80;;
72065;SDS011;59939;52.516;13.420;2023-02-01T04:49:01;15.43;;;3.03;;
72065;SDS011;59939;52.516;13.420;2023-02-01T04:52:05;20.50;;;4.30;;
72065;SDS011;59939;52.516;13.420;2023-02-01T04:55:09;14.07;;;3.67;;
72065;SDS011;59939;52.516;13.420;2023-02-01T04:58:15;18.73;;;4.33;;
72065;SDS011;59939;52.516;13.420;2023-02-01T05:01:19;20.27;;;4.07;;
72065;SDS011;59939;52.516;13.420;2023-02-01T05:04:25;18.47;;;4.27;;
72065;SDS011;59939;52.516;13.420;2023-02-01T05:07:29;16.17;;;4.67;;
72065;SDS011;59939;52.516;13.420;2023-02-01T05:10:33;14.30;;;3.57;;
72065;SDS011;59939;52.516;13.420;2023-02-01T05:13:36;19.83;;;3.60;;
72065;SDS011;59939;52.516;13.420;2023-02-01T05:16:56;16.13;;;3.33;;
72065;SDS011;59939;52.516;13.420;2023-02-01T05:19:59;12.17;;;4.30;;
72065;SDS011;59939;52.516;13.420;2023-02-01T05:23:05;14.37;;;4.23;;
72065;SDS011;59939;52.516;13.420;2023-02-01T05:26:09;16.27;;;4.00;;
72065;SDS011;59939;52.516;13.420;2023-02-01T05:29:13;17.70;;;2.87;;
72065;SDS011;59939;52.516;13.420;2023-02-01T05:32:17;15.67;;;3.77;;
72065;SDS011;59939;52.516;13.420;2023-02-01T05:35:25;13.17;;;4.03;;
72065;SDS011;59939;52.516;13.420;2023-02-01T05:38:29;14.43;;;3.37;;
72065;SDS011;59939;52.516;13.420;2023-02-01T05:41:38;15.97;;;3.43;;
72065;SDS011;59939;52.516;13.420;2023-02-01T05:44:42;12.50;;;3.07;;
72065;SDS011;59939;52.516;13.420;2023-02-01T05:47:46;16.17;;;4.23;;
72065;SDS011;59939;52.516;13.420;2023-02-01T05:50:50;17.23;;;3.80;;
72065;SDS011;59939;52.516;13.420;2023-02-01T05:53:56;18.93;;;3.87;;
72065;SDS011;59939;52.516;13.420;2023-02-01T05:57:02;12.67;;;3.47;;
72065;SDS011;59939;52.516;13.420;2023-02-01T06:00:07;12.83;;;3.93;;
72065;SDS011;59939;52.516;13.420;2023-02-01T06:03:15;20.63;;;4.03;;
72065;SDS011;59939;52.516;13.420;2023-02-01T06:06:19;19.50;;;4.70;;
72065;SDS011;59939;52.516;13.420;2023-02-01T06:09:23;15.47;;;4.17;;
72065;SDS011;59939;52.516;13.420;2023-02-01T06:12:27;12.70;;;2.77;;
72065;SDS011;59939;52.516;13.420;2023-02-01T06:15:31;19.27;;;5.53;;
72065;SDS011;59939;52.516;13.420;2023-02-01T06:18:43;21.03;;;4.27;;
72065;SDS011;59939;52.516;13.420;2023-02-01T06:22:01;18.03;;;4.80;;
72065;SDS011;59939;52.516;13.420;2023-02-01T06:25:07;18.30;;;8.83;;
72065;SDS011;59939;52.516;13.420;2023-02-01T06:28:12;16.57;;;5.30;;
72065;SDS011;59939;52.516;13.420;2023-02-01T06:31:16;18.90;;;6.60;;
72065;SDS011;59939;52.516;13.420;2023-02-01T06:34:20;25.57;;;8.33;;
72065;SDS011;59939;52.516;13.420;2023-02-01T06:37:31;24.03;;;7.43;;
72065;SDS011;59939;52.516;13.420;2023-02-01T06:40:42;22.37;;;5.90;;
72065;SDS011;59939;52.516;13.420;2023-02-01T06:43:49;15.50;;;5.90;;
72065;SDS011;59939;52.516;13.420;2023-02-01T06:46:53;17.87;;;5.97;;
72065;SDS011;59939;52.516;13.420;2023-02-01T06:49:58;23.67;;;6.00;;
72065;SDS011;59939;52.516;13.420;2023-02-01T06:53:06;17.23;;;4.80;;
72065;SDS011;59939;52.516;13.420;2023-02-01T06:56:11;15.43;;;4.17;;
72065;SDS011;59939;52.516;13.420;2023-02-01T06:59:15;21.87;;;4.63;;
72065;SDS011;59939;52.516;13.420;2023-02-01T07:02:20;19.33;;;4.17;;
72065;SDS011;59939;52.516;13.420;2023-02-01T07:05:24;15.10;;;3.33;;
72065;SDS011;59939;52.516;13.420;2023-02-01T07:08:29;17.17;;;3.90;;
72065;SDS011;59939;52.516;13.420;2023-02-01T07:11:33;10.13;;;2.77;;
72065;SDS011;59939;52.516;13.420;2023-02-01T07:14:37;13.57;;;3.47;;
72065;SDS011;59939;52.516;13.420;2023-02-01T07:17:41;13.90;;;4.53;;
72065;SDS011;59939;52.516;13.420;2023-02-01T07:20:50;16.97;;;5.23;;
72065;SDS011;59939;52.516;13.420;2023-02-01T07:23:57;18.67;;;6.20;;
72065;SDS011;59939;52.516;13.420;2023-02-01T07:27:01;19.50;;;5.73;;
72065;SDS011;59939;52.516;13.420;2023-02-01T07:30:06;10.43;;;8.63;;
72065;SDS011;59939;52.516;13.420;2023-02-01T07:33:10;20.53;;;14.47;;
72065;SDS011;59939;52.516;13.420;2023-02-01T07:36:15;16.90;;;5.57;;
72065;SDS011;59939;52.516;13.420;2023-02-01T07:39:19;17.93;;;5.67;;
72065;SDS011;59939;52.516;13.420;2023-02-01T07:42:23;16.53;;;6.43;;
72065;SDS011;59939;52.516;13.420;2023-02-01T07:45:27;13.30;;;5.50;;
72065;SDS011;59939;52.516;13.420;2023-02-01T07:48:34;38.03;;;34.90;;
72065;SDS011;59939;52.516;13.420;2023-02-01T07:51:38;66.07;;;61.80;;
72065;SDS011;59939;52.516;13.420;2023-02-01T07:54:42;82.37;;;78.03;;
72065;SDS011;59939;52.516;13.420;2023-02-01T07:58:01;89.83;;;85.47;;
72065;SDS011;59939;52.516;13.420;2023-02-01T08:01:05;110.40;;;105.37;;
72065;SDS011;59939;52.516;13.420;2023-02-01T08:04:32;91.07;;;86.37;;
72065;SDS011;59939;52.516;13.420;2023-02-01T08:07:36;60.97;;;57.50;;
72065;SDS011;59939;52.516;13.420;2023-02-01T08:10:40;67.63;;;63.20;;
72065;SDS011;59939;52.516;13.420;2023-02-01T08:13:43;68.30;;;64.57;;
72065;SDS011;59939;52.516;13.420;2023-02-01T08:16:48;65.07;;;62.00;;
72065;SDS011;59939;52.516;13.420;2023-02-01T08:19:55;66.73;;;63.17;;
72065;SDS011;59939;52.516;13.420;2023-02-01T08:23:02;61.90;;;57.47;;
72065;SDS011;59939;52.516;13.420;2023-02-01T08:26:16;50.77;;;47.87;;
72065;SDS011;59939;52.516;13.420;2023-02-01T08:29:20;50.13;;;46.90;;
72065;SDS011;59939;52.516;13.420;2023-02-01T08:32:24;53.53;;;50.20;;
72065;SDS011;59939;52.516;13.420;2023-02-01T08:35:28;52.20;;;49.00;;
72065;SDS011;59939;52.516;13.420;2023-02-01T08:38:45;48.47;;;45.13;;
72065;SDS011;59939;52.516;13.420;2023-02-01T08:41:56;47.00;;;44.03;;
72065;SDS011;59939;52.516;13.420;2023-02-01T08:48:23;42.20;;;39.50;;
72065;SDS011;59939;52.516;13.420;2023-02-01T08:51:28;52.27;;;49.10;;
72065;SDS011;59939;52.516;13.420;2023-02-01T08:54:32;76.37;;;72.77;;
72065;SDS011;59939;52.516;13.420;2023-02-01T08:57:38;65.03;;;61.50;;
72065;SDS011;59939;52.516;13.420;2023-02-01T09:00:44;57.23;;;54.33;;
72065;SDS011;59939;52.516;13.420;2023-02-01T09:03:49;56.30;;;52.73;;
72065;SDS011;59939;52.516;13.420;2023-02-01T09:06:54;57.03;;;54.03;;
72065;SDS011;59939;52.516;13.420;2023-02-01T09:10:01;49.23;;;46.43;;
72065;SDS011;59939;52.516;13.420;2023-02-01T09:13:06;55.63;;;52.73;;
72065;SDS011;59939;52.516;13.420;2023-02-01T09:16:25;63.43;;;60.00;;
72065;SDS011;59939;52.516;13.420;2023-02-01T09:19:29;53.50;;;50.47;;
72065;SDS011;59939;52.516;13.420;2023-02-01T09:22:33;57.80;;;54.80;;
72065;SDS011;59939;52.516;13.420;2023-02-01T09:25:37;64.67;;;61.37;;
72065;SDS011;59939;52.516;13.420;2023-02-01T09:28:43;71.53;;;68.13;;
72065;SDS011;59939;52.516;13.420;2023-02-01T09:31:46;73.87;;;70.47;;
72065;SDS011;59939;52.516;13.420;2023-02-01T09:35:04;77.43;;;73.93;;
72065;SDS011;59939;52.516;13.420;2023-02-01T09:38:16;72.70;;;69.37;;
72065;SDS011;59939;52.516;13.420;2023-02-01T09:44:47;71.87;;;68.37;;
72065;SDS011;59939;52.516;13.420;2023-02-01T09:47:56;68.20;;;64.83;;
72065;SDS011;59939;52.516;13.420;2023-02-01T09:51:12;69.60;;;66.50;;
72065;SDS011;59939;52.516;13.420;2023-02-01T09:54:17;77.93;;;74.53;;
72065;SDS011;59939;52.516;13.420;2023-02-01T09:57:36;75.80;;;72.37;;
72065;SDS011;59939;52.516;13.420;2023-02-01T10:00:46;70.63;;;67.00;;
72065;SDS011;59939;52.516;13.420;2023-02-01T10:03:57;76.83;;;73.23;;
72065;SDS011;59939;52.516;13.420;2023-02-01T10:07:19;77.97;;;74.53;;
72065;SDS011;59939;52.516;13.420;2023-02-01T10:10:43;101.73;;;97.73;;
72065;SDS011;59939;52.516;13.420;2023-02-01T10:13:52;98.87;;;94.93;;
72065;SDS011;59939;52.516;13.420;2023-02-01T10:23:51;83.50;;;79.90;;
72065;SDS011;59939;52.516;13.420;2023-02-01T10:27:01;96.20;;;91.70;;
72065;SDS011;59939;52.516;13.420;2023-02-01T10:33:25;107.20;;;102.90;;
72065;SDS011;59939;52.516;13.420;2023-02-01T10:36:32;97.77;;;93.77;;
72065;SDS011;59939;52.516;13.420;2023-02-01T10:39:38;78.77;;;75.27;;
72065;SDS011;59939;52.516;13.420;2023-02-01T10:42:42;82.57;;;78.30;;
72065;SDS011;59939;52.516;13.420;2023-02-01T10:45:46;83.03;;;79.00;;
72065;SDS011;59939;52.516;13.420;2023-02-01T10:48:58;100.77;;;96.20;;
72065;SDS011;59939;52.516;13.420;2023-02-01T10:52:18;94.67;;;87.50;;
72065;SDS011;59939;52.516;13.420;2023-02-01T10:55:46;76.27;;;72.87;;
72065;SDS011;59939;52.516;13.420;2023-02-01T10:58:50;85.40;;;81.80;;
72065;SDS011;59939;52.516;13.420;2023-02-01T11:01:59;101.57;;;97.50;;
72065;SDS011;59939;52.516;13.420;2023-02-01T11:05:08;97.20;;;93.03;;
72065;SDS011;59939;52.516;13.420;2023-02-01T11:08:14;85.20;;;81.77;;
72065;SDS011;59939;52.516;13.420;2023-02-01T11:11:20;88.00;;;84.30;;
72065;SDS011;59939;52.516;13.420;2023-02-01T11:14:30;87.10;;;83.50;;
72065;SDS011;59939;52.516;13.420;2023-02-01T11:17:39;90.93;;;87.13;;
72065;SDS011;59939;52.516;13.420;2023-02-01T11:20:43;90.40;;;86.73;;
72065;SDS011;59939;52.516;13.420;2023-02-01T11:23:51;93.40;;;89.27;;
72065;SDS011;59939;52.516;13.420;2023-02-01T11:26:56;95.80;;;91.33;;
72065;SDS011;59939;52.516;13.420;2023-02-01T11:30:00;92.17;;;88.37;;
72065;SDS011;59939;52.516;13.420;2023-02-01T11:33:09;83.37;;;79.87;;
72065;SDS011;59939;52.516;13.420;2023-02-01T11:36:17;77.60;;;73.60;;
72065;SDS011;59939;52.516;13.420;2023-02-01T11:39:33;69.60;;;66.43;;
72065;SDS011;59939;52.516;13.420;2023-02-01T11:42:37;79.43;;;76.03;;
72065;SDS011;59939;52.516;13.420;2023-02-01T11:46:03;78.50;;;75.03;;
72065;SDS011;59939;52.516;13.420;2023-02-01T11:49:14;65.30;;;61.37;;
72065;SDS011;59939;52.516;13.420;2023-02-01T11:52:32;71.50;;;68.30;;
72065;SDS011;59939;52.516;13.420;2023-02-01T11:58:50;43.40;;;40.60;;
72065;SDS011;59939;52.516;13.420;2023-02-01T12:05:37;16.80;;;12.73;;
72065;SDS011;59939;52.516;13.420;2023-02-01T12:12:24;9.70;;;3.40;;
72065;SDS011;59939;52.516;13.420;2023-02-01T12:15:35;11.23;;;2.83;;
72065;SDS011;59939;52.516;13.420;2023-02-01T12:32:53;7.17;;;2.70;;
72065;SDS011;59939;52.516;13.420;2023-02-01T12:39:08;11.27;;;3.40;;
72065;SDS011;59939;52.516;13.420;2023-02-01T12:42:24;10.53;;;3.17;;
72065;SDS011;59939;52.516;13.420;2023-02-01T12:45:31;8.77;;;2.30;;
72065;SDS011;59939;52.516;13.420;2023-02-01T12:48:39;12.50;;;2.63;;
72065;SDS011;59939;52.516;13.420;2023-02-01T12:51:46;9.00;;;2.93;;
72065;SDS011;59939;52.516;13.420;2023-02-01T12:55:38;9.93;;;2.77;;
72065;SDS011;59939;52.516;13.420;2023-02-01T12:58:26;9.47;;;2.50;;
72065;SDS011;59939;52.516;13.420;2023-02-01T13:01:35;15.50;;;3.37;;
72065;SDS011;59939;52.516;13.420;2023-02-01T13:08:10;14.13;;;4.83;;
72065;SDS011;59939;52.516;13.420;2023-02-01T13:11:16;10.00;;;2.80;;
72065;SDS011;59939;52.516;13.420;2023-02-01T13:17:45;13.13;;;3.27;;
72065;SDS011;59939;52.516;13.420;2023-02-01T13:21:07;14.47;;;3.03;;
72065;SDS011;59939;52.516;13.420;2023-02-01T13:27:38;12.50;;;2.67;;
72065;SDS011;59939;52.516;13.420;2023-02-01T13:30:51;10.97;;;2.47;;
72065;SDS011;59939;52.516;13.420;2023-02-01T13:34:03;6.97;;;2.30;;
72065;SDS011;59939;52.516;13.420;2023-02-01T13:40:36;13.57;;;2.50;;
72065;SDS011;59939;52.516;13.420;2023-02-01T13:43:41;11.30;;;2.33;;
72065;SDS011;59939;52.516;13.420;2023-02-01T13:46:50;9.60;;;3.10;;
72065;SDS011;59939;52.516;13.420;2023-02-01T13:50:04;8.73;;;2.97;;
72065;SDS011;59939;52.516;13.420;2023-02-01T13:53:17;9.20;;;2.37;;
72065;SDS011;59939;52.516;13.420;2023-02-01T13:56:42;8.97;;;2.83;;
72065;SDS011;59939;52.516;13.420;2023-02-01T13:59:51;12.63;;;2.53;;
72065;SDS011;59939;52.516;13.420;2023-02-01T14:05:59;8.87;;;2.80;;
72065;SDS011;59939;52.516;13.420;2023-02-01T14:15:39;45.93;;;43.07;;
72065;SDS011;59939;52.516;13.420;2023-02-01T14:21:50;42.47;;;39.73;;
72065;SDS011;59939;52.516;13.420;2023-02-01T14:25:00;43.93;;;41.63;;
72065;SDS011;59939;52.516;13.420;2023-02-01T14:28:10;44.27;;;41.03;;
72065;SDS011;59939;52.516;13.420;2023-02-01T14:31:37;41.17;;;38.00;;
72065;SDS011;59939;52.516;13.420;2023-02-01T14:37:53;29.20;;;27.10;;
72065;SDS011;59939;52.516;13.420;2023-02-01T14:41:11;29.23;;;26.60;;
72065;SDS011;59939;52.516;13.420;2023-02-01T14:44:28;35.53;;;32.93;;
72065;SDS011;59939;52.516;13.420;2023-02-01T14:47:33;34.03;;;31.00;;
72065;SDS011;59939;52.516;13.420;2023-02-01T14:50:39;25.60;;;23.13;;
72065;SDS011;59939;52.516;13.420;2023-02-01T14:53:45;19.27;;;16.43;;
72065;SDS011;59939;52.516;13.420;2023-02-01T14:56:51;19.83;;;11.60;;
72065;SDS011;59939;52.516;13.420;2023-02-01T14:59:59;16.03;;;13.87;;
72065;SDS011;59939;52.516;13.420;2023-02-01T15:03:16;12.00;;;10.00;;
72065;SDS011;59939;52.516;13.420;2023-02-01T15:06:32;11.67;;;7.67;;
72065;SDS011;59939;52.516;13.420;2023-02-01T15:09:43;10.80;;;5.80;;
72065;SDS011;59939;52.516;13.420;2023-02-01T15:12:56;18.67;;;11.00;;
72065;SDS011;59939;52.516;13.420;2023-02-01T15:16:01;38.47;;;36.07;;
72065;SDS011;59939;52.516;13.420;2023-02-01T15:19:09;41.50;;;38.53;;
72065;SDS011;59939;52.516;13.420;2023-02-01T15:22:17;36.07;;;33.77;;
72065;SDS011;59939;52.516;13.420;2023-02-01T15:25:25;37.47;;;35.20;;
72065;SDS011;59939;52.516;13.420;2023-02-01T15:28:29;34.13;;;32.20;;
72065;SDS011;59939;52.516;13.420;2023-02-01T15:31:36;32.63;;;30.53;;
72065;SDS011;59939;52.516;13.420;2023-02-01T15:34:48;37.67;;;35.57;;
72065;SDS011;59939;52.516;13.420;2023-02-01T15:37:52;33.67;;;31.73;;
72065;SDS011;59939;52.516;13.420;2023-02-01T15:41:10;31.73;;;29.83;;
72065;SDS011;59939;52.516;13.420;2023-02-01T15:44:26;31.00;;;29.10;;
72065;SDS011;59939;52.516;13.420;2023-02-01T15:47:34;38.87;;;36.77;;
72065;SDS011;59939;52.516;13.420;2023-02-01T15:50:39;42.77;;;40.37;;
72065;SDS011;59939;52.516;13.420;2023-02-01T15:53:44;41.00;;;38.90;;
72065;SDS011;59939;52.516;13.420;2023-02-01T15:56:53;62.67;;;59.67;;
72065;SDS011;59939;52.516;13.420;2023-02-01T15:59:59;49.47;;;47.03;;
72065;SDS011;59939;52.516;13.420;2023-02-01T16:03:48;50.37;;;47.87;;
72065;SDS011;59939;52.516;13.420;2023-02-01T16:06:53;52.07;;;49.57;;
72065;SDS011;59939;52.516;13.420;2023-02-01T16:10:18;56.10;;;53.40;;
72065;SDS011;59939;52.516;13.420;2023-02-01T16:13:24;93.27;;;89.33;;
72065;SDS011;59939;52.516;13.420;2023-02-01T16:16:28;60.77;;;57.90;;
72065;SDS011;59939;52.516;13.420;2023-02-01T16:19:32;64.20;;;61.40;;
72065;SDS011;59939;52.516;13.420;2023-02-01T16:22:36;70.07;;;67.10;;
72065;SDS011;59939;52.516;13.420;2023-02-01T16:25:40;50.43;;;48.03;;
72065;SDS011;59939;52.516;13.420;2023-02-01T16:28:44;52.20;;;49.80;;
72065;SDS011;59939;52.516;13.420;2023-02-01T16:31:48;52.27;;;49.67;;
72065;SDS011;59939;52.516;13.420;2023-02-01T16:34:52;53.83;;;51.43;;
72065;SDS011;59939;52.516;13.420;2023-02-01T16:37:58;50.77;;;48.37;;
72065;SDS011;59939;52.516;13.420;2023-02-01T16:41:03;53.00;;;50.60;;
72065;SDS011;59939;52.516;13.420;2023-02-01T16:44:10;57.07;;;54.37;;
72065;SDS011;59939;52.516;13.420;2023-02-01T16:47:18;56.97;;;54.43;;
72065;SDS011;59939;52.516;13.420;2023-02-01T16:50:27;53.10;;;50.63;;
72065;SDS011;59939;52.516;13.420;2023-02-01T16:53:33;53.27;;;50.77;;
72065;SDS011;59939;52.516;13.420;2023-02-01T16:56:45;52.10;;;49.60;;
72065;SDS011;59939;52.516;13.420;2023-02-01T16:59:58;46.60;;;44.37;;
72065;SDS011;59939;52.516;13.420;2023-02-01T17:03:10;45.47;;;43.17;;
72065;SDS011;59939;52.516;13.420;2023-02-01T17:06:15;46.93;;;44.63;;
72065;SDS011;59939;52.516;13.420;2023-02-01T17:09:20;45.73;;;43.53;;
72065;SDS011;59939;52.516;13.420;2023-02-01T17:12:39;50.53;;;47.93;;
72065;SDS011;59939;52.516;13.420;2023-02-01T17:15:46;52.30;;;49.70;;
72065;SDS011;59939;52.516;13.420;2023-02-01T17:18:54;50.37;;;48.00;;
72065;SDS011;59939;52.516;13.420;2023-02-01T17:21:59;51.00;;;48.60;;
72065;SDS011;59939;52.516;13.420;2023-02-01T17:25:06;54.40;;;51.70;;
72065;SDS011;59939;52.516;13.420;2023-02-01T17:28:11;54.43;;;51.63;;
72065;SDS011;59939;52.516;13.420;2023-02-01T17:31:18;55.07;;;52.13;;
72065;SDS011;59939;52.516;13.420;2023-02-01T17:34:23;53.73;;;51.20;;
72065;SDS011;59939;52.516;13.420;2023-02-01T17:37:33;56.13;;;53.43;;
72065;SDS011;59939;52.516;13.420;2023-02-01T17:40:37;58.23;;;55.27;;
72065;SDS011;59939;52.516;13.420;2023-02-01T17:43:41;59.63;;;56.53;;
72065;SDS011;59939;52.516;13.420;2023-02-01T17:46:45;57.70;;;54.37;;
72065;SDS011;59939;52.516;13.420;2023-02-01T17:49:49;60.57;;;57.70;;
72065;SDS011;59939;52.516;13.420;2023-02-01T17:52:59;61.87;;;58.97;;
72065;SDS011;59939;52.516;13.420;2023-02-01T17:56:02;65.50;;;62.30;;
72065;SDS011;59939;52.516;13.420;2023-02-01T17:59:07;63.37;;;60.20;;
72065;SDS011;59939;52.516;13.420;2023-02-01T18:02:16;65.67;;;62.23;;
72065;SDS011;59939;52.516;13.420;2023-02-01T18:05:23;60.43;;;57.60;;
72065;SDS011;59939;52.516;13.420;2023-02-01T18:08:29;61.87;;;59.07;;
72065;SDS011;59939;52.516;13.420;2023-02-01T18:11:36;59.27;;;56.37;;
72065;SDS011;59939;52.516;13.420;2023-02-01T18:14:39;61.13;;;58.17;;
72065;SDS011;59939;52.516;13.420;2023-02-01T18:17:43;58.03;;;55.13;;
72065;SDS011;59939;52.516;13.420;2023-02-01T18:20:47;57.53;;;54.43;;
72065;SDS011;59939;52.516;13.420;2023-02-01T18:23:51;54.63;;;52.00;;
72065;SDS011;59939;52.516;13.420;2023-02-01T18:26:56;58.57;;;55.60;;
72065;SDS011;59939;52.516;13.420;2023-02-01T18:30:02;55.10;;;52.40;;
72065;SDS011;59939;52.516;13.420;2023-02-01T18:33:10;52.03;;;49.30;;
72065;SDS011;59939;52.516;13.420;2023-02-01T18:36:14;41.57;;;39.07;;
72065;SDS011;59939;52.516;13.420;2023-02-01T18:39:18;39.60;;;37.07;;
72065;SDS011;59939;52.516;13.420;2023-02-01T18:42:22;31.60;;;29.37;;
72065;SDS011;59939;52.516;13.420;2023-02-01T18:45:44;26.17;;;24.03;;
72065;SDS011;59939;52.516;13.420;2023-02-01T18:48:48;18.37;;;16.77;;
72065;SDS011;59939;52.516;13.420;2023-02-01T18:51:52;17.63;;;13.90;;
72065;SDS011;59939;52.516;13.420;2023-02-01T18:54:55;12.73;;;10.43;;
72065;SDS011;59939;52.516;13.420;2023-02-01T18:58:03;15.67;;;8.57;;
72065;SDS011;59939;52.516;13.420;2023-02-01T19:01:13;14.03;;;6.73;;
72065;SDS011;59939;52.516;13.420;2023-02-01T19:04:18;15.23;;;5.07;;
72065;SDS011;59939;52.516;13.420;2023-02-01T19:07:22;13.53;;;4.50;;
72065;SDS011;59939;52.516;13.420;2023-02-01T19:10:26;11.20;;;4.17;;
72065;SDS011;59939;52.516;13.420;2023-02-01T19:13:30;11.67;;;4.77;;
72065;SDS011;59939;52.516;13.420;2023-02-01T19:16:34;7.23;;;4.07;;
72065;SDS011;59939;52.516;13.420;2023-02-01T19:19:42;8.77;;;4.13;;
72065;SDS011;59939;52.516;13.420;2023-02-01T19:22:48;10.43;;;4.20;;
72065;SDS011;59939;52.516;13.420;2023-02-01T19:25:52;9.97;;;4.80;;
72065;SDS011;59939;52.516;13.420;2023-02-01T19:28:59;8.70;;;4.33;;
72065;SDS011;59939;52.516;13.420;2023-02-01T19:32:05;13.90;;;4.27;;
72065;SDS011;59939;52.516;13.420;2023-02-01T19:35:11;17.03;;;5.93;;
72065;SDS011;59939;52.516;13.420;2023-02-01T19:38:16;11.80;;;4.47;;
72065;SDS011;59939;52.516;13.420;2023-02-01T19:41:20;11.03;;;4.00;;
72065;SDS011;59939;52.516;13.420;2023-02-01T19:44:24;12.43;;;4.57;;
72065;SDS011;59939;52.516;13.420;2023-02-01T19:47:28;15.40;;;4.17;;
72065;SDS011;59939;52.516;13.420;2023-02-01T19:50:31;13.07;;;3.93;;
72065;SDS011;59939;52.516;13.420;2023-02-01T19:53:35;12.37;;;4.17;;
72065;SDS011;59939;52.516;13.420;2023-02-01T19:56:41;11.53;;;4.17;;
72065;SDS011;59939;52.516;13.420;2023-02-01T19:59:54;11.27;;;3.13;;
72065;SDS011;59939;52.516;13.420;2023-02-01T20:02:59;13.03;;;3.53;;
72065;SDS011;59939;52.516;13.420;2023-02-01T20:06:04;11.00;;;3.70;;
72065;SDS011;59939;52.516;13.420;2023-02-01T20:09:09;18.53;;;4.30;;